sensor_id;sensor_type;location;lat;lon;timestamp;temperature;humidity
13328;DHT22;6733;51.044;3.746;2023-08-20T00:00:29;20.90;99.90
13328;DHT22;6733;51.044;3.746;2023-08-20T00:03:02;20.90;99.90
13328;DHT22;6733;51.044;3.746;2023-08-20T00:05:30;20.90;99.90
13328;DHT22;6733;51.044;3.746;2023-08-20T00:07:56;21.00;99.90
13328;DHT22;6733;51.044;3.746;2023-08-20T00:10:22;21.00;99.90
13328;DHT22;6733;51.044;3.746;2023-08-20T00:12:48;21.00;99.90
13328;DHT22;6733;51.044;3.746;2023-08-20T00:15:14;21.00;99.90
13328;DHT22;6733;51.044;3.746;2023-08-20T00:17:41;21.00;99.90
13328;DHT22;6733;51.044;3.746;2023-08-20T00:20:08;21.00;99.90
13328;DHT22;6733;51.044;3.746;2023-08-20T00:22:42;21.10;99.90
13328;DHT22;6733;51.044;3.746;2023-08-20T00:25:12;21.10;99.90
13328;DHT22;6733;51.044;3.746;2023-08-20T00:27:39;21.10;99.90
13328;DHT22;6733;51.044;3.746;2023-08-20T00:30:06;21.10;99.90
13328;DHT22;6733;51.044;3.746;2023-08-20T00:32:32;21.10;99.90
13328;DHT22;6733;51.044;3.746;2023-08-20T00:34:59;21.20;99.90
13328;DHT22;6733;51.044;3.746;2023-08-20T00:37:25;21.20;99.90
13328;DHT22;6733;51.044;3.746;2023-08-20T00:39:51;21.20;99.90
13328;DHT22;6733;51.044;3.746;2023-08-20T00:42:17;21.30;99.90
13328;DHT22;6733;51.044;3.746;2023-08-20T00:44:43;21.30;99.90
13328;DHT22;6733;51.044;3.746;2023-08-20T00:47:13;21.30;99.90
13328;DHT22;6733;51.044;3.746;2023-08-20T00:49:40;21.30;99.90
13328;DHT22;6733;51.044;3.746;2023-08-20T00:52:08;21.30;99.90
13328;DHT22;6733;51.044;3.746;2023-08-20T00:54:35;21.40;99.90
13328;DHT22;6733;51.044;3.746;2023-08-20T00:57:02;21.30;99.90
13328;DHT22;6733;51.044;3.746;2023-08-20T00:59:30;21.30;99.90
13328;DHT22;6733;51.044;3.746;2023-08-20T01:01:58;21.30;99.90
13328;DHT22;6733;51.044;3.746;2023-08-20T01:04:24;21.20;99.90
13328;DHT22;6733;51.044;3.746;2023-08-20T01:07:17;21.10;99.90
13328;DHT22;6733;51.044;3.746;2023-08-20T01:10:03;21.00;99.90
13328;DHT22;6733;51.044;3.746;2023-08-20T01:12:31;20.90;99.90
13328;DHT22;6733;51.044;3.746;2023-08-20T01:14:58;20.90;99.90
13328;DHT22;6733;51.044;3.746;2023-08-20T01:17:24;20.80;99.90
13328;DHT22;6733;51.044;3.746;2023-08-20T01:19:50;20.80;99.90
13328;DHT22;6733;51.044;3.746;2023-08-20T01:22:37;20.80;99.90
13328;DHT22;6733;51.044;3.746;2023-08-20T01:28:28;20.80;99.90
13328;DHT22;6733;51.044;3.746;2023-08-20T01:30:57;20.90;99.90
13328;DHT22;6733;51.044;3.746;2023-08-20T01:33:23;20.90;99.90
13328;DHT22;6733;51.044;3.746;2023-08-20T01:35:54;20.80;99.90
13328;DHT22;6733;51.044;3.746;2023-08-20T01:38:20;20.80;99.90
13328;DHT22;6733;51.044;3.746;2023-08-20T01:40:47;20.80;99.90
13328;DHT22;6733;51.044;3.746;2023-08-20T01:43:13;20.80;99.90
13328;DHT22;6733;51.044;3.746;2023-08-20T01:45:39;20.70;99.90
13328;DHT22;6733;51.044;3.746;2023-08-20T01:48:06;20.60;99.90
13328;DHT22;6733;51.044;3.746;2023-08-20T01:50:34;20.60;99.90
13328;DHT22;6733;51.044;3.746;2023-08-20T01:53:01;20.50;99.90
13328;DHT22;6733;51.044;3.746;2023-08-20T01:55:28;20.50;99.90
13328;DHT22;6733;51.044;3.746;2023-08-20T01:57:55;20.40;99.90
13328;DHT22;6733;51.044;3.746;2023-08-20T02:00:21;20.50;99.90
13328;DHT22;6733;51.044;3.746;2023-08-20T02:02:47;20.50;99.90
13328;DHT22;6733;51.044;3.746;2023-08-20T02:05:13;20.40;99.90
13328;DHT22;6733;51.044;3.746;2023-08-20T02:07:39;20.40;99.90
13328;DHT22;6733;51.044;3.746;2023-08-20T02:10:06;20.30;99.90
13328;DHT22;6733;51.044;3.746;2023-08-20T02:12:32;20.20;99.90
13328;DHT22;6733;51.044;3.746;2023-08-20T02:14:59;20.20;99.90
13328;DHT22;6733;51.044;3.746;2023-08-20T02:17:25;20.10;99.90
13328;DHT22;6733;51.044;3.746;2023-08-20T02:19:51;20.10;99.90
13328;DHT22;6733;51.044;3.746;2023-08-20T02:22:18;20.00;99.90
13328;DHT22;6733;51.044;3.746;2023-08-20T02:24:46;20.00;99.90
13328;DHT22;6733;51.044;3.746;2023-08-20T02:27:12;20.00;99.90
13328;DHT22;6733;51.044;3.746;2023-08-20T02:29:38;19.90;99.90
13328;DHT22;6733;51.044;3.746;2023-08-20T02:32:05;19.90;99.90
13328;DHT22;6733;51.044;3.746;2023-08-20T02:34:31;19.80;99.90
13328;DHT22;6733;51.044;3.746;2023-08-20T02:36:57;19.80;99.90
13328;DHT22;6733;51.044;3.746;2023-08-20T02:39:52;19.80;99.90
13328;DHT22;6733;51.044;3.746;2023-08-20T02:42:46;19.80;99.90
13328;DHT22;6733;51.044;3.746;2023-08-20T02:45:43;19.80;99.90
13328;DHT22;6733;51.044;3.746;2023-08-20T02:48:37;19.80;99.90
13328;DHT22;6733;51.044;3.746;2023-08-20T02:51:32;19.80;99.90
13328;DHT22;6733;51.044;3.746;2023-08-20T02:54:26;19.80;99.90
13328;DHT22;6733;51.044;3.746;2023-08-20T02:56:55;19.90;99.90
13328;DHT22;6733;51.044;3.746;2023-08-20T02:59:21;19.90;99.90
13328;DHT22;6733;51.044;3.746;2023-08-20T03:01:47;19.90;99.90
13328;DHT22;6733;51.044;3.746;2023-08-20T03:04:13;19.90;99.90
13328;DHT22;6733;51.044;3.746;2023-08-20T03:06:39;19.90;99.90
13328;DHT22;6733;51.044;3.746;2023-08-20T03:09:06;19.90;99.90
13328;DHT22;6733;51.044;3.746;2023-08-20T03:11:32;19.90;99.90
13328;DHT22;6733;51.044;3.746;2023-08-20T03:13:58;20.00;99.90
13328;DHT22;6733;51.044;3.746;2023-08-20T03:16:24;19.90;99.90
13328;DHT22;6733;51.044;3.746;2023-08-20T03:18:50;20.00;99.90
13328;DHT22;6733;51.044;3.746;2023-08-20T03:21:16;19.90;99.90
13328;DHT22;6733;51.044;3.746;2023-08-20T03:23:42;19.90;99.90
13328;DHT22;6733;51.044;3.746;2023-08-20T03:26:09;19.90;99.90
13328;DHT22;6733;51.044;3.746;2023-08-20T03:28:35;19.90;99.90
13328;DHT22;6733;51.044;3.746;2023-08-20T03:31:01;19.90;99.90
13328;DHT22;6733;51.044;3.746;2023-08-20T03:33:28;19.90;99.90
13328;DHT22;6733;51.044;3.746;2023-08-20T03:35:54;19.90;99.90
13328;DHT22;6733;51.044;3.746;2023-08-20T03:38:20;19.90;99.90
13328;DHT22;6733;51.044;3.746;2023-08-20T03:40:48;19.90;99.90
13328;DHT22;6733;51.044;3.746;2023-08-20T03:43:14;19.90;99.90
13328;DHT22;6733;51.044;3.746;2023-08-20T03:45:40;19.90;99.90
13328;DHT22;6733;51.044;3.746;2023-08-20T03:48:06;19.90;99.90
13328;DHT22;6733;51.044;3.746;2023-08-20T03:50:32;19.90;99.90
13328;DHT22;6733;51.044;3.746;2023-08-20T03:52:58;19.80;99.90
13328;DHT22;6733;51.044;3.746;2023-08-20T03:55:24;19.80;99.90
13328;DHT22;6733;51.044;3.746;2023-08-20T03:57:51;19.80;99.90
13328;DHT22;6733;51.044;3.746;2023-08-20T04:00:17;19.70;99.90
13328;DHT22;6733;51.044;3.746;2023-08-20T04:02:43;19.70;99.90
13328;DHT22;6733;51.044;3.746;2023-08-20T04:05:09;19.60;99.90
13328;DHT22;6733;51.044;3.746;2023-08-20T04:07:35;19.60;99.90
13328;DHT22;6733;51.044;3.746;2023-08-20T04:10:02;19.50;99.90
13328;DHT22;6733;51.044;3.746;2023-08-20T04:12:28;19.50;99.90
13328;DHT22;6733;51.044;3.746;2023-08-20T04:14:54;19.40;99.90
13328;DHT22;6733;51.044;3.746;2023-08-20T04:17:20;19.40;99.90
13328;DHT22;6733;51.044;3.746;2023-08-20T04:19:46;19.30;99.90
13328;DHT22;6733;51.044;3.746;2023-08-20T04:22:12;19.30;99.90
13328;DHT22;6733;51.044;3.746;2023-08-20T04:24:39;19.30;99.90
13328;DHT22;6733;51.044;3.746;2023-08-20T04:27:05;19.20;99.90
13328;DHT22;6733;51.044;3.746;2023-08-20T04:29:32;19.10;99.90
13328;DHT22;6733;51.044;3.746;2023-08-20T04:31:58;19.20;99.90
13328;DHT22;6733;51.044;3.746;2023-08-20T04:34:24;19.20;99.90
13328;DHT22;6733;51.044;3.746;2023-08-20T04:36:51;19.10;99.90
13328;DHT22;6733;51.044;3.746;2023-08-20T04:39:18;19.10;99.90
13328;DHT22;6733;51.044;3.746;2023-08-20T04:41:44;19.10;99.90
13328;DHT22;6733;51.044;3.746;2023-08-20T04:44:11;19.10;99.90
13328;DHT22;6733;51.044;3.746;2023-08-20T04:46:37;19.10;99.90
13328;DHT22;6733;51.044;3.746;2023-08-20T04:49:03;19.00;99.90
13328;DHT22;6733;51.044;3.746;2023-08-20T04:51:29;19.00;99.90
13328;DHT22;6733;51.044;3.746;2023-08-20T04:53:55;19.00;99.90
13328;DHT22;6733;51.044;3.746;2023-08-20T04:56:21;19.00;99.90
13328;DHT22;6733;51.044;3.746;2023-08-20T04:58:47;19.00;99.90
13328;DHT22;6733;51.044;3.746;2023-08-20T05:01:13;19.00;99.90
13328;DHT22;6733;51.044;3.746;2023-08-20T05:03:40;19.00;99.90
13328;DHT22;6733;51.044;3.746;2023-08-20T05:06:06;19.00;99.90
13328;DHT22;6733;51.044;3.746;2023-08-20T05:08:32;19.00;99.90
13328;DHT22;6733;51.044;3.746;2023-08-20T05:10:58;19.00;99.90
13328;DHT22;6733;51.044;3.746;2023-08-20T05:13:24;19.00;99.90
13328;DHT22;6733;51.044;3.746;2023-08-20T05:15:50;19.00;99.90
13328;DHT22;6733;51.044;3.746;2023-08-20T05:18:16;19.00;99.90
13328;DHT22;6733;51.044;3.746;2023-08-20T05:20:43;19.00;99.90
13328;DHT22;6733;51.044;3.746;2023-08-20T05:23:09;19.00;99.90
13328;DHT22;6733;51.044;3.746;2023-08-20T05:25:35;19.10;99.90
13328;DHT22;6733;51.044;3.746;2023-08-20T05:28:01;19.10;99.90
13328;DHT22;6733;51.044;3.746;2023-08-20T05:30:28;19.10;99.90
13328;DHT22;6733;51.044;3.746;2023-08-20T05:32:54;19.10;99.90
13328;DHT22;6733;51.044;3.746;2023-08-20T05:35:20;19.10;99.90
13328;DHT22;6733;51.044;3.746;2023-08-20T05:37:46;19.20;99.90
13328;DHT22;6733;51.044;3.746;2023-08-20T05:40:12;19.20;99.90
13328;DHT22;6733;51.044;3.746;2023-08-20T05:42:45;19.30;99.90
13328;DHT22;6733;51.044;3.746;2023-08-20T05:45:23;19.30;99.90
13328;DHT22;6733;51.044;3.746;2023-08-20T05:47:49;19.30;99.90
13328;DHT22;6733;51.044;3.746;2023-08-20T05:50:15;19.40;99.90
13328;DHT22;6733;51.044;3.746;2023-08-20T05:52:42;19.40;99.90
13328;DHT22;6733;51.044;3.746;2023-08-20T05:55:08;19.40;99.90
13328;DHT22;6733;51.044;3.746;2023-08-20T05:57:36;19.50;99.90
13328;DHT22;6733;51.044;3.746;2023-08-20T06:00:04;19.50;99.90
13328;DHT22;6733;51.044;3.746;2023-08-20T06:02:30;19.60;99.90
13328;DHT22;6733;51.044;3.746;2023-08-20T06:04:56;19.60;99.90
13328;DHT22;6733;51.044;3.746;2023-08-20T06:07:22;19.70;99.90
13328;DHT22;6733;51.044;3.746;2023-08-20T06:09:48;19.70;99.90
13328;DHT22;6733;51.044;3.746;2023-08-20T06:12:16;19.80;99.90
13328;DHT22;6733;51.044;3.746;2023-08-20T06:14:43;19.80;99.90
13328;DHT22;6733;51.044;3.746;2023-08-20T06:17:09;19.90;99.90
13328;DHT22;6733;51.044;3.746;2023-08-20T06:19:35;19.90;99.90
13328;DHT22;6733;51.044;3.746;2023-08-20T06:22:01;20.00;99.90
13328;DHT22;6733;51.044;3.746;2023-08-20T06:24:28;20.10;99.90
13328;DHT22;6733;51.044;3.746;2023-08-20T06:26:54;20.10;99.90
13328;DHT22;6733;51.044;3.746;2023-08-20T06:29:21;20.20;99.90
13328;DHT22;6733;51.044;3.746;2023-08-20T06:31:48;20.20;99.90
13328;DHT22;6733;51.044;3.746;2023-08-20T06:34:15;20.30;99.90
13328;DHT22;6733;51.044;3.746;2023-08-20T06:36:41;20.40;99.90
13328;DHT22;6733;51.044;3.746;2023-08-20T06:39:07;20.50;99.90
13328;DHT22;6733;51.044;3.746;2023-08-20T06:41:34;20.50;99.90
13328;DHT22;6733;51.044;3.746;2023-08-20T06:44:02;20.60;99.90
13328;DHT22;6733;51.044;3.746;2023-08-20T06:46:28;20.70;99.90
13328;DHT22;6733;51.044;3.746;2023-08-20T06:48:54;20.80;99.90
13328;DHT22;6733;51.044;3.746;2023-08-20T06:51:21;20.90;99.90
13328;DHT22;6733;51.044;3.746;2023-08-20T06:53:49;20.90;99.90
13328;DHT22;6733;51.044;3.746;2023-08-20T06:56:15;21.10;99.90
13328;DHT22;6733;51.044;3.746;2023-08-20T06:58:42;21.20;99.90
13328;DHT22;6733;51.044;3.746;2023-08-20T07:01:08;21.30;99.90
13328;DHT22;6733;51.044;3.746;2023-08-20T07:03:38;21.40;99.90
13328;DHT22;6733;51.044;3.746;2023-08-20T07:06:05;21.60;99.90
13328;DHT22;6733;51.044;3.746;2023-08-20T07:08:32;21.80;99.90
13328;DHT22;6733;51.044;3.746;2023-08-20T07:10:58;21.90;99.90
13328;DHT22;6733;51.044;3.746;2023-08-20T07:13:25;22.10;99.90
13328;DHT22;6733;51.044;3.746;2023-08-20T07:15:51;22.30;99.90
13328;DHT22;6733;51.044;3.746;2023-08-20T07:18:17;22.50;99.90
13328;DHT22;6733;51.044;3.746;2023-08-20T07:20:44;22.60;99.90
13328;DHT22;6733;51.044;3.746;2023-08-20T07:23:11;22.80;99.90
13328;DHT22;6733;51.044;3.746;2023-08-20T07:25:38;23.00;99.90
13328;DHT22;6733;51.044;3.746;2023-08-20T07:28:06;23.10;99.90
13328;DHT22;6733;51.044;3.746;2023-08-20T07:30:32;23.20;99.90
13328;DHT22;6733;51.044;3.746;2023-08-20T07:32:59;23.30;99.90
13328;DHT22;6733;51.044;3.746;2023-08-20T07:35:25;23.40;99.90
13328;DHT22;6733;51.044;3.746;2023-08-20T07:37:51;23.50;99.90
13328;DHT22;6733;51.044;3.746;2023-08-20T07:40:17;23.60;99.90
13328;DHT22;6733;51.044;3.746;2023-08-20T07:42:44;23.80;99.90
13328;DHT22;6733;51.044;3.746;2023-08-20T07:45:10;23.90;99.90
13328;DHT22;6733;51.044;3.746;2023-08-20T07:47:37;24.10;99.90
13328;DHT22;6733;51.044;3.746;2023-08-20T07:50:04;24.20;99.90
13328;DHT22;6733;51.044;3.746;2023-08-20T07:52:32;24.40;99.90
13328;DHT22;6733;51.044;3.746;2023-08-20T07:54:58;24.60;99.90
13328;DHT22;6733;51.044;3.746;2023-08-20T07:57:25;24.80;99.90
13328;DHT22;6733;51.044;3.746;2023-08-20T07:59:51;24.90;99.90
13328;DHT22;6733;51.044;3.746;2023-08-20T08:02:17;25.10;99.90
13328;DHT22;6733;51.044;3.746;2023-08-20T08:04:44;25.30;99.90
13328;DHT22;6733;51.044;3.746;2023-08-20T08:07:11;25.50;99.90
13328;DHT22;6733;51.044;3.746;2023-08-20T08:09:37;25.60;99.90
13328;DHT22;6733;51.044;3.746;2023-08-20T08:12:04;25.60;99.90
13328;DHT22;6733;51.044;3.746;2023-08-20T08:14:30;25.70;99.90
13328;DHT22;6733;51.044;3.746;2023-08-20T08:16:57;25.90;99.90
13328;DHT22;6733;51.044;3.746;2023-08-20T08:19:23;26.20;99.90
13328;DHT22;6733;51.044;3.746;2023-08-20T08:21:49;26.30;99.90
13328;DHT22;6733;51.044;3.746;2023-08-20T08:24:15;26.50;99.90
13328;DHT22;6733;51.044;3.746;2023-08-20T08:26:42;26.70;99.90
13328;DHT22;6733;51.044;3.746;2023-08-20T08:29:08;26.80;99.90
13328;DHT22;6733;51.044;3.746;2023-08-20T08:31:35;26.90;99.90
13328;DHT22;6733;51.044;3.746;2023-08-20T08:34:02;27.10;99.90
13328;DHT22;6733;51.044;3.746;2023-08-20T08:36:29;27.10;99.90
13328;DHT22;6733;51.044;3.746;2023-08-20T08:38:55;27.20;99.90
13328;DHT22;6733;51.044;3.746;2023-08-20T08:41:22;27.10;99.90
13328;DHT22;6733;51.044;3.746;2023-08-20T08:43:53;27.40;99.90
13328;DHT22;6733;51.044;3.746;2023-08-20T08:46:21;27.40;99.90
13328;DHT22;6733;51.044;3.746;2023-08-20T08:48:48;27.70;99.90
13328;DHT22;6733;51.044;3.746;2023-08-20T08:51:15;27.90;99.90
13328;DHT22;6733;51.044;3.746;2023-08-20T08:53:43;28.10;99.90
13328;DHT22;6733;51.044;3.746;2023-08-20T08:56:10;28.30;99.90
13328;DHT22;6733;51.044;3.746;2023-08-20T08:58:37;28.40;99.90
13328;DHT22;6733;51.044;3.746;2023-08-20T09:01:03;28.60;99.90
13328;DHT22;6733;51.044;3.746;2023-08-20T09:03:29;28.60;99.90
13328;DHT22;6733;51.044;3.746;2023-08-20T09:05:57;28.80;99.90
13328;DHT22;6733;51.044;3.746;2023-08-20T09:08:30;29.00;99.90
13328;DHT22;6733;51.044;3.746;2023-08-20T09:10:58;29.10;99.90
13328;DHT22;6733;51.044;3.746;2023-08-20T09:13:32;29.10;99.90
13328;DHT22;6733;51.044;3.746;2023-08-20T09:15:58;29.30;99.90
13328;DHT22;6733;51.044;3.746;2023-08-20T09:18:24;29.50;99.40
13328;DHT22;6733;51.044;3.746;2023-08-20T09:20:51;29.60;98.80
13328;DHT22;6733;51.044;3.746;2023-08-20T09:23:17;29.80;98.00
13328;DHT22;6733;51.044;3.746;2023-08-20T09:25:43;29.80;97.40
13328;DHT22;6733;51.044;3.746;2023-08-20T09:28:11;29.90;96.80
13328;DHT22;6733;51.044;3.746;2023-08-20T09:30:37;30.00;96.90
13328;DHT22;6733;51.044;3.746;2023-08-20T09:33:12;29.90;96.40
13328;DHT22;6733;51.044;3.746;2023-08-20T09:35:50;29.80;96.70
13328;DHT22;6733;51.044;3.746;2023-08-20T09:38:19;29.80;96.40
13328;DHT22;6733;51.044;3.746;2023-08-20T09:40:52;29.80;96.50
13328;DHT22;6733;51.044;3.746;2023-08-20T09:43:19;29.90;96.80
13328;DHT22;6733;51.044;3.746;2023-08-20T09:45:50;29.90;97.00
13328;DHT22;6733;51.044;3.746;2023-08-20T09:48:18;30.00;96.40
13328;DHT22;6733;51.044;3.746;2023-08-20T09:50:48;30.10;96.40
13328;DHT22;6733;51.044;3.746;2023-08-20T09:56:27;30.00;94.90
13328;DHT22;6733;51.044;3.746;2023-08-20T09:59:00;29.80;95.40
13328;DHT22;6733;51.044;3.746;2023-08-20T10:01:27;29.90;97.60
13328;DHT22;6733;51.044;3.746;2023-08-20T10:03:54;30.10;97.10
13328;DHT22;6733;51.044;3.746;2023-08-20T10:06:21;30.20;94.20
13328;DHT22;6733;51.044;3.746;2023-08-20T10:08:47;30.30;95.20
13328;DHT22;6733;51.044;3.746;2023-08-20T10:11:15;30.50;93.90
13328;DHT22;6733;51.044;3.746;2023-08-20T10:13:42;30.70;96.80
13328;DHT22;6733;51.044;3.746;2023-08-20T10:16:12;30.60;96.90
13328;DHT22;6733;51.044;3.746;2023-08-20T10:18:39;30.60;94.50
13328;DHT22;6733;51.044;3.746;2023-08-20T10:21:05;30.50;98.90
13328;DHT22;6733;51.044;3.746;2023-08-20T10:23:40;30.60;98.10
13328;DHT22;6733;51.044;3.746;2023-08-20T10:26:09;30.80;96.90
13328;DHT22;6733;51.044;3.746;2023-08-20T10:28:35;30.70;99.10
13328;DHT22;6733;51.044;3.746;2023-08-20T10:31:07;30.60;99.00
13328;DHT22;6733;51.044;3.746;2023-08-20T10:33:34;30.50;97.60
13328;DHT22;6733;51.044;3.746;2023-08-20T10:36:18;30.50;98.30
13328;DHT22;6733;51.044;3.746;2023-08-20T10:38:45;30.40;99.30
13328;DHT22;6733;51.044;3.746;2023-08-20T10:41:11;30.30;99.20
13328;DHT22;6733;51.044;3.746;2023-08-20T10:43:40;30.20;99.40
13328;DHT22;6733;51.044;3.746;2023-08-20T10:48:41;30.50;95.90
13328;DHT22;6733;51.044;3.746;2023-08-20T10:51:12;30.40;96.60
13328;DHT22;6733;51.044;3.746;2023-08-20T10:53:39;30.40;97.90
13328;DHT22;6733;51.044;3.746;2023-08-20T10:56:16;30.40;98.00
13328;DHT22;6733;51.044;3.746;2023-08-20T10:58:47;30.60;98.50
13328;DHT22;6733;51.044;3.746;2023-08-20T11:01:20;30.50;99.00
13328;DHT22;6733;51.044;3.746;2023-08-20T11:03:48;30.40;98.10
13328;DHT22;6733;51.044;3.746;2023-08-20T11:06:15;30.60;97.00
13328;DHT22;6733;51.044;3.746;2023-08-20T11:08:41;30.60;98.50
13328;DHT22;6733;51.044;3.746;2023-08-20T11:11:10;30.60;96.80
13328;DHT22;6733;51.044;3.746;2023-08-20T11:13:37;30.50;98.60
13328;DHT22;6733;51.044;3.746;2023-08-20T11:16:04;30.50;95.00
13328;DHT22;6733;51.044;3.746;2023-08-20T11:18:32;30.50;96.80
13328;DHT22;6733;51.044;3.746;2023-08-20T11:21:00;30.60;95.70
13328;DHT22;6733;51.044;3.746;2023-08-20T11:23:26;30.60;97.20
13328;DHT22;6733;51.044;3.746;2023-08-20T11:25:53;30.70;94.70
13328;DHT22;6733;51.044;3.746;2023-08-20T11:28:20;30.80;94.60
13328;DHT22;6733;51.044;3.746;2023-08-20T11:30:47;30.90;95.30
13328;DHT22;6733;51.044;3.746;2023-08-20T11:33:13;30.70;95.70
13328;DHT22;6733;51.044;3.746;2023-08-20T11:35:40;30.70;95.80
13328;DHT22;6733;51.044;3.746;2023-08-20T11:38:07;30.70;97.40
13328;DHT22;6733;51.044;3.746;2023-08-20T11:40:33;30.50;98.30
13328;DHT22;6733;51.044;3.746;2023-08-20T11:42:59;30.60;98.10
13328;DHT22;6733;51.044;3.746;2023-08-20T11:45:26;30.70;96.20
13328;DHT22;6733;51.044;3.746;2023-08-20T11:47:56;30.80;96.80
13328;DHT22;6733;51.044;3.746;2023-08-20T11:50:24;30.90;97.00
13328;DHT22;6733;51.044;3.746;2023-08-20T11:52:52;30.70;95.10
13328;DHT22;6733;51.044;3.746;2023-08-20T11:55:24;30.80;96.10
13328;DHT22;6733;51.044;3.746;2023-08-20T11:57:53;30.80;97.40
13328;DHT22;6733;51.044;3.746;2023-08-20T12:00:27;30.80;95.60
13328;DHT22;6733;51.044;3.746;2023-08-20T12:02:54;30.90;96.30
13328;DHT22;6733;51.044;3.746;2023-08-20T12:05:30;31.20;94.00
13328;DHT22;6733;51.044;3.746;2023-08-20T12:07:58;31.30;95.70
13328;DHT22;6733;51.044;3.746;2023-08-20T12:10:26;31.40;94.60
13328;DHT22;6733;51.044;3.746;2023-08-20T12:12:54;31.50;93.30
13328;DHT22;6733;51.044;3.746;2023-08-20T12:15:21;31.50;93.00
13328;DHT22;6733;51.044;3.746;2023-08-20T12:18:00;31.60;92.90
13328;DHT22;6733;51.044;3.746;2023-08-20T12:20:28;31.60;94.60
13328;DHT22;6733;51.044;3.746;2023-08-20T12:22:56;31.60;95.50
13328;DHT22;6733;51.044;3.746;2023-08-20T12:25:22;31.50;94.50
13328;DHT22;6733;51.044;3.746;2023-08-20T12:27:51;31.70;95.10
13328;DHT22;6733;51.044;3.746;2023-08-20T12:30:22;31.70;95.10
13328;DHT22;6733;51.044;3.746;2023-08-20T12:32:48;31.50;95.70
13328;DHT22;6733;51.044;3.746;2023-08-20T12:35:14;31.30;95.30
13328;DHT22;6733;51.044;3.746;2023-08-20T12:37:40;31.30;96.30
13328;DHT22;6733;51.044;3.746;2023-08-20T12:40:08;31.10;96.50
13328;DHT22;6733;51.044;3.746;2023-08-20T12:42:38;30.90;96.70
13328;DHT22;6733;51.044;3.746;2023-08-20T12:45:06;30.80;97.20
13328;DHT22;6733;51.044;3.746;2023-08-20T12:47:32;30.60;97.10
13328;DHT22;6733;51.044;3.746;2023-08-20T12:49:59;30.60;96.50
13328;DHT22;6733;51.044;3.746;2023-08-20T12:52:25;30.60;95.50
13328;DHT22;6733;51.044;3.746;2023-08-20T12:54:51;30.50;98.00
13328;DHT22;6733;51.044;3.746;2023-08-20T12:57:17;30.10;98.20
13328;DHT22;6733;51.044;3.746;2023-08-20T12:59:43;30.50;94.00
13328;DHT22;6733;51.044;3.746;2023-08-20T13:02:10;30.80;93.90
13328;DHT22;6733;51.044;3.746;2023-08-20T13:04:37;31.10;93.10
13328;DHT22;6733;51.044;3.746;2023-08-20T13:07:04;31.20;94.60
13328;DHT22;6733;51.044;3.746;2023-08-20T13:09:30;31.10;94.70
13328;DHT22;6733;51.044;3.746;2023-08-20T13:11:57;31.10;92.60
13328;DHT22;6733;51.044;3.746;2023-08-20T13:14:26;31.30;92.40
13328;DHT22;6733;51.044;3.746;2023-08-20T13:16:53;31.40;92.90
13328;DHT22;6733;51.044;3.746;2023-08-20T13:19:19;31.00;94.90
13328;DHT22;6733;51.044;3.746;2023-08-20T13:21:45;30.60;95.40
13328;DHT22;6733;51.044;3.746;2023-08-20T13:24:11;30.70;94.90
13328;DHT22;6733;51.044;3.746;2023-08-20T13:26:37;30.90;93.90
13328;DHT22;6733;51.044;3.746;2023-08-20T13:29:03;31.00;94.80
13328;DHT22;6733;51.044;3.746;2023-08-20T13:31:30;31.00;95.10
13328;DHT22;6733;51.044;3.746;2023-08-20T13:33:56;31.10;93.50
13328;DHT22;6733;51.044;3.746;2023-08-20T13:36:22;31.30;94.10
13328;DHT22;6733;51.044;3.746;2023-08-20T13:38:48;31.50;93.10
13328;DHT22;6733;51.044;3.746;2023-08-20T13:41:14;31.60;92.40
13328;DHT22;6733;51.044;3.746;2023-08-20T13:43:41;31.70;92.50
13328;DHT22;6733;51.044;3.746;2023-08-20T13:46:07;31.80;93.20
13328;DHT22;6733;51.044;3.746;2023-08-20T13:48:33;31.70;92.10
13328;DHT22;6733;51.044;3.746;2023-08-20T13:50:59;31.70;92.00
13328;DHT22;6733;51.044;3.746;2023-08-20T13:53:26;31.70;93.10
13328;DHT22;6733;51.044;3.746;2023-08-20T13:55:52;31.90;92.20
13328;DHT22;6733;51.044;3.746;2023-08-20T13:58:19;31.80;92.70
13328;DHT22;6733;51.044;3.746;2023-08-20T14:00:45;31.40;93.70
13328;DHT22;6733;51.044;3.746;2023-08-20T14:03:12;31.10;95.90
13328;DHT22;6733;51.044;3.746;2023-08-20T14:05:38;30.60;96.80
13328;DHT22;6733;51.044;3.746;2023-08-20T14:08:04;30.30;97.50
13328;DHT22;6733;51.044;3.746;2023-08-20T14:10:31;30.10;98.10
13328;DHT22;6733;51.044;3.746;2023-08-20T14:12:57;30.10;98.80
13328;DHT22;6733;51.044;3.746;2023-08-20T14:15:23;30.00;99.00
13328;DHT22;6733;51.044;3.746;2023-08-20T14:17:49;29.90;99.60
13328;DHT22;6733;51.044;3.746;2023-08-20T14:20:15;30.00;99.80
13328;DHT22;6733;51.044;3.746;2023-08-20T14:22:42;29.60;99.90
13328;DHT22;6733;51.044;3.746;2023-08-20T14:25:08;30.30;99.90
13328;DHT22;6733;51.044;3.746;2023-08-20T14:27:34;31.50;99.40
13328;DHT22;6733;51.044;3.746;2023-08-20T14:30:00;32.50;98.30
13328;DHT22;6733;51.044;3.746;2023-08-20T14:32:27;33.10;97.00
13328;DHT22;6733;51.044;3.746;2023-08-20T14:34:53;32.90;97.00
13328;DHT22;6733;51.044;3.746;2023-08-20T14:37:19;32.10;97.40
13328;DHT22;6733;51.044;3.746;2023-08-20T14:39:45;32.80;97.40
13328;DHT22;6733;51.044;3.746;2023-08-20T14:42:11;32.70;97.00
13328;DHT22;6733;51.044;3.746;2023-08-20T14:44:37;32.20;97.50
13328;DHT22;6733;51.044;3.746;2023-08-20T14:47:05;33.20;96.90
13328;DHT22;6733;51.044;3.746;2023-08-20T14:49:31;33.60;96.20
13328;DHT22;6733;51.044;3.746;2023-08-20T14:51:57;34.40;95.30
13328;DHT22;6733;51.044;3.746;2023-08-20T14:54:25;34.10;94.90
13328;DHT22;6733;51.044;3.746;2023-08-20T14:56:52;34.60;94.90
13328;DHT22;6733;51.044;3.746;2023-08-20T14:59:18;34.90;94.20
13328;DHT22;6733;51.044;3.746;2023-08-20T15:01:44;35.50;93.70
13328;DHT22;6733;51.044;3.746;2023-08-20T15:04:10;36.20;92.60
13328;DHT22;6733;51.044;3.746;2023-08-20T15:06:36;36.90;91.50
13328;DHT22;6733;51.044;3.746;2023-08-20T15:09:02;36.90;91.50
13328;DHT22;6733;51.044;3.746;2023-08-20T15:11:29;37.00;90.90
13328;DHT22;6733;51.044;3.746;2023-08-20T15:13:55;36.80;90.50
13328;DHT22;6733;51.044;3.746;2023-08-20T15:16:21;36.80;90.90
13328;DHT22;6733;51.044;3.746;2023-08-20T15:18:48;36.60;90.80
13328;DHT22;6733;51.044;3.746;2023-08-20T15:21:14;36.50;90.40
13328;DHT22;6733;51.044;3.746;2023-08-20T15:23:41;37.30;89.20
13328;DHT22;6733;51.044;3.746;2023-08-20T15:26:07;36.90;90.10
13328;DHT22;6733;51.044;3.746;2023-08-20T15:28:33;37.50;88.30
13328;DHT22;6733;51.044;3.746;2023-08-20T15:31:00;37.30;88.90
13328;DHT22;6733;51.044;3.746;2023-08-20T15:33:27;37.90;85.70
13328;DHT22;6733;51.044;3.746;2023-08-20T15:35:53;38.10;85.40
13328;DHT22;6733;51.044;3.746;2023-08-20T15:38:19;38.50;83.30
13328;DHT22;6733;51.044;3.746;2023-08-20T15:40:46;38.60;80.90
13328;DHT22;6733;51.044;3.746;2023-08-20T15:43:12;38.50;79.70
13328;DHT22;6733;51.044;3.746;2023-08-20T15:45:38;38.70;79.60
13328;DHT22;6733;51.044;3.746;2023-08-20T15:48:04;38.80;79.90
13328;DHT22;6733;51.044;3.746;2023-08-20T15:50:31;39.30;78.50
13328;DHT22;6733;51.044;3.746;2023-08-20T15:52:57;39.80;76.60
13328;DHT22;6733;51.044;3.746;2023-08-20T15:55:23;39.70;76.20